METAR Formatted Surface Weather Observation
Issued by NWS

Home | Current Version | Previous Version | Text Only | Print | Product List | Glossary On
Versions: 1 2 3 4 5 6 7 8 9 10 11 12 13 14 15 16 17 18
000
SAUS45 KBOU 211158
MTRABH
METAR KABH 211156Z AUTO 04005KT CLR 05/04 A3010 RMK AO2 SLP162
T00500044 10100 20028 58006 $



USA.gov is the U.S. government's official web portal to all federal, state and local government web resources and services.